Time;durP1;ratioP1;P1;durP2;ratioP2;P2;SDS_P1;SDS_P2;PMS_P1;PMS_P2;Temp;Humidity;BMP_temperature;BMP_pressure;BME280_temperature;BME280_humidity;BME280_pressure;Samples;Min_cycle;Max_cycle;Signal;HPM_P1;HPM_P2
2023/03/18 00:00:22;;;;;;;9.35;4.60;;;;;;;13.31;60.36;100720.94;5124664;28;20035;-64
2023/03/18 00:02:52;;;;;;;9.68;4.88;;;;;;;13.31;60.50;100720.94;5123693;28;20122;-63
2023/03/18 00:05:20;;;;;;;13.18;3.75;;;;;;;13.30;60.67;100721.19;5113838;28;20040;-63
2023/03/18 00:07:49;;;;;;;8.27;3.83;;;;;;;13.30;60.54;100721.19;5116130;28;20086;-63
2023/03/18 00:10:17;;;;;;;7.78;3.55;;;;;;;13.28;60.36;100718.72;5118602;27;20104;-63
2023/03/18 00:12:45;;;;;;;12.75;4.15;;;;;;;13.28;60.37;100728.72;5121646;28;20063;-64
2023/03/18 00:15:15;;;;;;;9.68;3.63;;;;;;;13.27;60.52;100733.28;5117922;28;20172;-63
2023/03/18 00:17:43;;;;;;;9.30;4.03;;;;;;;13.26;60.27;100728.94;5115408;28;20094;-64
2023/03/18 00:20:13;;;;;;;11.10;3.90;;;;;;;13.26;60.25;100730.84;5119628;28;20043;-64
2023/03/18 00:22:42;;;;;;;10.50;3.92;;;;;;;13.25;60.56;100731.91;5121409;28;20052;-64
2023/03/18 00:25:12;;;;;;;9.50;4.63;;;;;;;13.24;60.80;100744.56;5120145;28;20047;-63
2023/03/18 00:27:40;;;;;;;6.63;3.83;;;;;;;13.23;60.73;100739.41;5113214;27;20600;-64
2023/03/18 00:30:11;;;;;;;10.13;4.07;;;;;;;13.22;60.49;100741.28;5115558;28;20556;-64
2023/03/18 00:32:40;;;;;;;13.00;5.22;;;;;;;13.20;61.01;100740.72;5118037;27;20064;-65
2023/03/18 00:35:09;;;;;;;7.70;4.07;;;;;;;13.19;60.70;100732.84;5122599;28;20121;-63
2023/03/18 00:37:38;;;;;;;8.80;4.65;;;;;;;13.18;61.10;100737.44;5115104;28;20077;-63
2023/03/18 00:40:09;;;;;;;8.25;4.38;;;;;;;13.20;60.80;100750.69;5114430;28;20044;-63
2023/03/18 00:42:46;;;;;;;5.93;3.80;;;;;;;13.19;60.77;100757.16;5121452;28;20055;-63
2023/03/18 00:45:14;;;;;;;;;;;;;;;13.18;61.11;100769.81;5122223;28;20047;-63
2023/03/18 00:47:43;;;;;;;6.53;3.63;;;;;;;13.10;60.72;100751.28;5116850;28;20240;-63
2023/03/18 00:50:12;;;;;;;6.63;3.45;;;;;;;13.16;60.40;100766.53;5122213;28;20043;-63
2023/03/18 00:52:41;;;;;;;8.38;4.22;;;;;;;13.19;60.75;100766.06;5107928;28;20755;-64
2023/03/18 00:55:10;;;;;;;5.40;3.53;;;;;;;13.19;60.39;100770.63;5111967;28;20058;-62
2023/03/18 00:57:37;;;;;;;6.40;3.22;;;;;;;13.17;60.45;100776.28;5123786;28;20107;-63
2023/03/18 01:00:07;;;;;;;6.25;3.13;;;;;;;13.18;60.84;100774.41;5116877;28;20107;-63
2023/03/18 01:02:35;;;;;;;12.70;4.20;;;;;;;13.16;60.54;100771.94;5118218;28;20087;-63
2023/03/18 01:05:03;;;;;;;7.82;4.25;;;;;;;13.16;60.88;100769.25;5110061;28;20130;-64
2023/03/18 01:07:31;;;;;;;9.93;3.80;;;;;;;13.16;60.75;100768.38;5113116;28;20079;-64
2023/03/18 01:10:00;;;;;;;6.82;3.85;;;;;;;13.15;61.13;100767.56;5114171;28;20052;-64
2023/03/18 01:12:27;;;;;;;8.60;4.22;;;;;;;13.16;60.99;100765.69;5120072;28;20055;-64
2023/03/18 01:14:55;;;;;;;8.48;4.05;;;;;;;13.14;61.48;100751.63;5112114;28;20055;-63
2023/03/18 01:17:23;;;;;;;8.85;4.22;;;;;;;13.13;61.47;100747.28;5117267;28;20067;-64
2023/03/18 01:19:52;;;;;;;5.72;3.65;;;;;;;13.15;61.36;100753.25;5119331;27;20047;-64
2023/03/18 01:22:19;;;;;;;10.13;4.57;;;;;;;13.14;61.69;100757.03;5113624;28;20051;-64
2023/03/18 01:24:47;;;;;;;10.02;4.72;;;;;;;13.07;61.80;100745.56;5113274;28;20051;-64
2023/03/18 01:27:17;;;;;;;8.13;4.28;;;;;;;13.11;61.63;100769.13;5122341;28;20047;-64
2023/03/18 01:29:45;;;;;;;9.18;4.63;;;;;;;13.10;62.06;100759.38;5112671;28;20134;-64
2023/03/18 01:32:13;;;;;;;8.10;3.88;;;;;;;13.08;61.92;100755.28;5109263;28;20111;-64
2023/03/18 01:34:41;;;;;;;9.70;4.25;;;;;;;13.10;62.19;100739.69;5111159;28;20103;-64
2023/03/18 01:37:08;;;;;;;7.90;4.18;;;;;;;13.09;62.52;100751.53;5118382;28;20043;-64
2023/03/18 01:39:36;;;;;;;9.02;4.97;;;;;;;13.06;62.50;100747.44;5121097;28;20048;-64
2023/03/18 01:42:05;;;;;;;8.63;4.03;;;;;;;13.04;62.75;100752.25;5118540;28;20044;-64
2023/03/18 01:44:34;;;;;;;10.52;4.65;;;;;;;13.03;62.92;100743.34;5120188;28;20047;-64
2023/03/18 01:47:02;;;;;;;11.20;4.95;;;;;;;13.02;63.13;100740.88;5122151;28;20115;-64
2023/03/18 01:49:35;;;;;;;9.00;4.38;;;;;;;13.02;62.97;100741.69;5108782;28;20140;-64
2023/03/18 01:52:08;;;;;;;9.13;4.72;;;;;;;12.99;63.22;100744.06;5121247;28;20051;-64
2023/03/18 01:54:39;;;;;;;11.35;5.07;;;;;;;12.99;63.22;100752.97;5121448;28;20061;-64
2023/03/18 01:57:07;;;;;;;8.95;4.53;;;;;;;12.98;63.33;100754.03;5122987;28;20067;-64
2023/03/18 01:59:40;;;;;;;10.82;4.10;;;;;;;12.89;63.38;100741.97;5118551;28;20058;-64
2023/03/18 02:02:10;;;;;;;11.13;4.40;;;;;;;12.96;64.02;100750.75;5115191;28;20107;-63
2023/03/18 02:04:41;;;;;;;8.95;4.88;;;;;;;12.96;64.13;100755.31;5110172;28;20074;-63
2023/03/18 02:07:14;;;;;;;10.30;4.97;;;;;;;12.95;63.74;100751.00;5123622;28;20130;-63
2023/03/18 02:09:42;;;;;;;9.48;4.88;;;;;;;12.93;63.64;100756.63;5121031;28;20059;-64
2023/03/18 02:12:12;;;;;;;11.52;5.32;;;;;;;12.89;64.22;100750.06;5122587;28;20048;-63
2023/03/18 02:14:41;;;;;;;12.13;5.38;;;;;;;12.91;63.79;100756.03;5122453;28;20127;-63
2023/03/18 02:17:14;;;;;;;10.05;4.75;;;;;;;12.90;64.16;100758.97;5111894;28;20120;-63
2023/03/18 02:19:56;;;;;;;9.25;4.68;;;;;;;12.89;64.44;100758.16;5121308;28;20040;-63
2023/03/18 02:22:29;;;;;;;11.00;4.78;;;;;;;12.89;64.26;100763.56;5125976;28;20127;-63
2023/03/18 02:25:13;;;;;;;9.10;5.25;;;;;;;12.89;64.18;100763.56;5122670;28;20055;-63
2023/03/18 02:27:44;;;;;;;9.38;4.78;;;;;;;12.86;64.00;100760.50;5115188;28;20053;-63
2023/03/18 02:30:17;;;;;;;8.48;4.45;;;;;;;12.88;63.92;100767.31;5120150;28;20139;-64
2023/03/18 02:32:46;;;;;;;9.65;4.47;;;;;;;12.88;64.20;100770.00;5122604;28;20139;-63
2023/03/18 02:35:14;;;;;;;9.23;5.22;;;;;;;12.88;64.29;100766.50;5123228;28;20056;-63
2023/03/18 02:37:42;;;;;;;10.88;4.45;;;;;;;12.78;64.33;100750.09;5119593;28;20054;-64
2023/03/18 02:40:15;;;;;;;10.18;5.05;;;;;;;12.87;64.25;100765.66;5124851;28;20125;-64
2023/03/18 02:42:45;;;;;;;9.38;6.13;;;;;;;12.87;64.16;100772.94;5112577;28;20055;-64
2023/03/18 02:45:23;;;;;;;13.35;5.38;;;;;;;12.86;64.30;100774.00;5120874;28;20596;-63
2023/03/18 02:47:52;;;;;;;11.23;5.05;;;;;;;12.85;64.16;100781.28;5123193;28;21405;-63
2023/03/18 02:50:20;;;;;;;8.35;4.85;;;;;;;12.85;64.50;100772.38;5119564;28;20044;-63
2023/03/18 02:52:48;;;;;;;9.45;5.18;;;;;;;12.84;64.33;100789.59;5119179;28;20075;-63
2023/03/18 02:55:16;;;;;;;10.27;4.65;;;;;;;12.83;64.55;100791.47;5121133;28;20040;-64
2023/03/18 02:57:45;;;;;;;10.55;5.38;;;;;;;12.83;64.28;100785.25;5122632;28;20043;-64
2023/03/18 03:00:15;;;;;;;8.27;5.15;;;;;;;12.82;64.53;100789.03;5121358;28;20044;-64
2023/03/18 03:02:43;;;;;;;9.52;4.95;;;;;;;12.82;64.14;100791.72;5124605;28;20055;-63
2023/03/18 03:05:12;;;;;;;9.18;5.15;;;;;;;12.81;64.59;100788.19;5125837;28;20489;-63
2023/03/18 03:07:39;;;;;;;9.40;5.65;;;;;;;12.81;64.45;100795.47;5125162;28;20052;-63
2023/03/18 03:10:09;;;;;;;12.52;6.00;;;;;;;12.80;64.73;100797.34;5117864;28;20055;-63
2023/03/18 03:12:38;;;;;;;12.85;5.78;;;;;;;12.80;64.82;100804.63;5123381;28;20058;-64
2023/03/18 03:15:08;;;;;;;10.48;5.65;;;;;;;12.78;64.74;100799.47;5120638;28;20096;-62
2023/03/18 03:17:36;;;;;;;10.95;5.55;;;;;;;12.77;64.85;100794.31;5123846;28;20108;-63
2023/03/18 03:20:06;;;;;;;10.50;5.45;;;;;;;12.76;65.08;100806.97;5115367;28;20058;-62
2023/03/18 03:22:34;;;;;;;15.30;6.40;;;;;;;12.76;65.08;100806.16;5118986;28;20075;-63
2023/03/18 03:25:02;;;;;;;12.32;5.88;;;;;;;12.75;64.75;100805.34;5116288;28;20761;-63
2023/03/18 03:27:30;;;;;;;12.02;6.53;;;;;;;12.75;65.09;100801.81;5123556;28;20115;-63
2023/03/18 03:29:58;;;;;;;10.15;5.07;;;;;;;12.74;65.16;100805.56;5122170;28;20115;-63
2023/03/18 03:32:27;;;;;;;10.32;5.25;;;;;;;12.73;65.19;100799.34;5110167;28;20071;-63
2023/03/18 03:34:55;;;;;;;10.52;5.93;;;;;;;12.71;65.06;100802.28;5125065;28;20080;-62
2023/03/18 03:37:23;;;;;;;12.00;6.10;;;;;;;12.70;64.86;100800.66;5121426;28;20505;-63
2023/03/18 03:39:51;;;;;;;7.82;5.22;;;;;;;12.69;64.89;100808.97;5122253;28;20154;-63
2023/03/18 03:42:19;;;;;;;9.98;5.50;;;;;;;12.69;65.10;100811.66;5120437;28;20058;-63
2023/03/18 03:44:46;;;;;;;9.38;5.93;;;;;;;12.69;64.98;100817.06;5121030;28;20086;-63
2023/03/18 03:47:14;;;;;;;8.85;5.65;;;;;;;12.68;65.10;100818.13;5122799;28;20055;-63
2023/03/18 03:49:44;;;;;;;9.23;5.70;;;;;;;12.67;65.41;100813.78;5115010;27;20123;-63
2023/03/18 03:52:11;;;;;;;10.45;6.75;;;;;;;12.67;65.54;100814.59;5118443;28;20065;-63
2023/03/18 03:54:40;;;;;;;8.68;5.47;;;;;;;12.65;65.50;100814.03;5112104;28;20051;-63
2023/03/18 03:57:08;;;;;;;11.30;5.68;;;;;;;12.66;65.49;100822.94;5120754;28;20048;-63
2023/03/18 03:59:36;;;;;;;8.77;5.25;;;;;;;12.65;65.30;100821.28;5122546;28;20039;-63
2023/03/18 04:02:04;;;;;;;10.15;5.90;;;;;;;12.64;65.73;100823.16;5122796;28;20042;-63
2023/03/18 04:04:32;;;;;;;10.80;5.88;;;;;;;12.63;65.82;100829.63;5121647;28;20776;-63
2023/03/18 04:07:02;;;;;;;17.58;7.75;;;;;;;12.63;65.29;100826.09;5121416;28;20048;-63
2023/03/18 04:09:29;;;;;;;11.32;5.65;;;;;;;12.61;65.67;100829.03;5113936;27;20111;-63
2023/03/18 04:11:57;;;;;;;12.00;6.38;;;;;;;12.62;65.62;100836.06;5113346;28;20507;-63
2023/03/18 04:14:25;;;;;;;11.00;5.60;;;;;;;12.61;65.68;100833.59;5121727;28;20094;-64
2023/03/18 04:16:54;;;;;;;8.63;5.10;;;;;;;12.61;65.80;100833.59;5123968;28;20106;-63
2023/03/18 04:19:22;;;;;;;12.65;7.03;;;;;;;12.61;65.50;100822.81;5122378;28;20126;-64
2023/03/18 04:21:50;;;;;;;14.48;6.82;;;;;;;12.59;65.21;100824.94;5110859;28;20057;-64
2023/03/18 04:24:19;;;;;;;11.10;6.72;;;;;;;12.60;65.57;100827.38;5123341;28;20054;-63
2023/03/18 04:26:47;;;;;;;10.80;5.63;;;;;;;12.60;65.71;100830.09;5118635;28;20090;-64
2023/03/18 04:29:15;;;;;;;12.60;6.05;;;;;;;12.61;65.38;100833.59;5111965;28;20054;-64
2023/03/18 04:31:43;;;;;;;15.95;5.70;;;;;;;12.60;65.89;100830.09;5112385;28;20051;-63
2023/03/18 04:34:12;;;;;;;12.23;5.50;;;;;;;12.60;65.68;100831.97;5119925;28;20138;-63
2023/03/18 04:36:40;;;;;;;11.40;5.97;;;;;;;12.58;65.67;100837.59;5116530;28;20060;-63
2023/03/18 04:39:08;;;;;;;11.25;6.13;;;;;;;12.59;65.73;100841.09;5121790;28;20047;-63
2023/03/18 04:41:38;;;;;;;12.25;6.57;;;;;;;12.57;65.67;100852.13;5112811;28;20130;-63
2023/03/18 04:44:06;;;;;;;13.38;6.57;;;;;;;12.57;65.94;100848.59;5122340;28;20107;-63
2023/03/18 04:46:33;;;;;;;12.27;5.97;;;;;;;12.57;65.84;100849.44;5121337;28;20071;-62
2023/03/18 04:49:01;;;;;;;12.20;5.95;;;;;;;12.57;65.60;100859.38;5117532;28;20393;-63
2023/03/18 04:51:29;;;;;;;8.45;5.20;;;;;;;12.56;66.00;100846.97;5121128;28;20131;-63
2023/03/18 04:53:57;;;;;;;9.00;5.72;;;;;;;12.47;65.45;100835.72;5115013;28;20079;-64
2023/03/18 04:56:25;;;;;;;11.95;5.97;;;;;;;12.53;65.90;100853.66;5118631;28;20043;-62
2023/03/18 04:58:54;;;;;;;11.07;6.43;;;;;;;12.54;66.10;100859.84;5117674;28;20058;-63
2023/03/18 05:01:22;;;;;;;8.65;5.70;;;;;;;12.53;65.74;100860.91;5119881;28;20095;-63
2023/03/18 05:03:51;;;;;;;7.60;5.10;;;;;;;12.52;65.79;100860.09;5111697;28;20040;-63
2023/03/18 05:06:22;;;;;;;9.98;5.55;;;;;;;12.52;66.02;100865.47;5113398;28;20071;-63
2023/03/18 05:08:50;;;;;;;11.13;6.55;;;;;;;12.51;66.16;100871.94;5117833;28;20044;-64
2023/03/18 05:11:18;;;;;;;8.65;5.53;;;;;;;12.51;65.65;100866.53;5123209;28;20102;-63
2023/03/18 05:13:46;;;;;;;9.07;5.07;;;;;;;12.51;65.91;100860.31;5118182;28;20266;-64
2023/03/18 05:16:15;;;;;;;9.77;5.40;;;;;;;12.51;66.11;100863.03;5117596;28;20114;-64
2023/03/18 05:18:44;;;;;;;8.60;5.40;;;;;;;12.50;66.17;100850.59;5120610;28;20065;-64
2023/03/18 05:21:11;;;;;;;11.05;5.47;;;;;;;12.48;65.89;100860.78;5120607;28;20051;-63
2023/03/18 05:23:39;;;;;;;11.95;5.57;;;;;;;12.48;66.11;100855.41;5109912;28;20054;-64
2023/03/18 05:26:08;;;;;;;10.95;5.75;;;;;;;12.47;65.78;100851.88;5121116;28;20138;-64
2023/03/18 05:28:36;;;;;;;9.43;5.88;;;;;;;12.44;65.81;100855.06;5122338;28;20504;-63
2023/03/18 05:31:04;;;;;;;9.05;5.68;;;;;;;12.46;65.87;100863.72;5118884;28;20136;-63
2023/03/18 05:33:33;;;;;;;12.02;6.03;;;;;;;12.45;65.87;100858.56;5120631;28;20168;-63
2023/03/18 05:36:01;;;;;;;10.25;5.40;;;;;;;12.44;66.10;100860.44;5122895;28;20127;-63
2023/03/18 05:38:29;;;;;;;11.98;5.60;;;;;;;12.45;65.89;100859.38;5119537;27;20047;-63
2023/03/18 05:40:57;;;;;;;9.35;5.25;;;;;;;12.43;65.84;100863.38;5114830;28;20146;-63
2023/03/18 05:43:25;;;;;;;8.77;5.20;;;;;;;12.42;65.97;100870.63;5117976;28;20039;-63
2023/03/18 05:45:53;;;;;;;9.27;5.47;;;;;;;12.41;65.61;100874.38;5111920;28;20082;-64
2023/03/18 05:48:21;;;;;;;12.95;5.63;;;;;;;12.41;65.87;100878.97;5118274;28;20377;-64
2023/03/18 05:50:51;;;;;;;10.25;5.20;;;;;;;12.41;65.37;100884.34;5114251;28;20072;-64
2023/03/18 05:53:19;;;;;;;8.32;5.00;;;;;;;12.38;65.63;100889.16;5117972;28;20558;-64
2023/03/18 05:55:47;;;;;;;8.43;5.13;;;;;;;12.39;65.98;100892.66;5110970;28;20107;-63
2023/03/18 05:58:15;;;;;;;8.30;4.97;;;;;;;12.32;65.41;100883.88;5118499;28;20047;-63
2023/03/18 06:00:43;;;;;;;9.60;5.30;;;;;;;12.38;65.49;100902.63;5119072;28;20039;-63
2023/03/18 06:03:10;;;;;;;9.80;5.20;;;;;;;12.40;65.58;100905.09;5111802;28;20086;-65
2023/03/18 06:05:38;;;;;;;7.18;4.78;;;;;;;12.38;65.60;100896.41;4755570;28;10000071;-64
2023/03/18 06:08:07;;;;;;;7.40;4.25;;;;;;;12.38;65.66;100889.16;5109617;28;20480;-63
2023/03/18 06:10:35;;;;;;;9.43;4.55;;;;;;;12.38;65.55;100885.63;5113282;28;20052;-65
2023/03/18 06:13:03;;;;;;;8.93;4.65;;;;;;;12.38;65.32;100883.75;5114349;28;20131;-62
2023/03/18 06:15:32;;;;;;;7.63;4.53;;;;;;;12.37;65.38;100884.00;5117709;28;20074;-63
2023/03/18 06:18:00;;;;;;;9.80;5.10;;;;;;;12.37;65.43;100890.19;5103126;28;20073;-63
2023/03/18 06:20:28;;;;;;;8.52;4.85;;;;;;;12.36;65.32;100893.94;5118943;28;20051;-64
2023/03/18 06:22:56;;;;;;;8.15;4.95;;;;;;;12.35;65.66;100889.59;5117682;28;20052;-65
2023/03/18 06:25:25;;;;;;;8.38;4.70;;;;;;;12.34;65.69;100887.97;5116865;28;20058;-62
2023/03/18 06:27:53;;;;;;;6.90;4.85;;;;;;;12.35;65.55;100891.47;5113472;28;20077;-63
2023/03/18 06:30:21;;;;;;;9.18;4.93;;;;;;;12.33;65.50;100899.81;5116978;28;20055;-64
2023/03/18 06:32:48;;;;;;;8.07;4.68;;;;;;;12.33;65.63;100902.50;5111217;28;20047;-65
2023/03/18 06:35:17;;;;;;;7.93;4.75;;;;;;;12.32;65.52;100908.94;5102496;28;20059;-64
2023/03/18 06:37:45;;;;;;;7.80;4.68;;;;;;;12.31;65.12;100918.06;5108628;28;20139;-63
2023/03/18 06:40:13;;;;;;;7.65;4.63;;;;;;;12.30;65.52;100913.75;5115741;28;20074;-66
2023/03/18 06:42:42;;;;;;;9.45;5.50;;;;;;;12.32;65.60;100916.19;5117377;28;20541;-63
2023/03/18 06:45:11;;;;;;;9.02;4.70;;;;;;;12.32;65.35;100918.91;5112877;28;20529;-63
2023/03/18 06:47:39;;;;;;;8.70;4.90;;;;;;;12.32;65.33;100916.19;5110903;28;20054;-63
2023/03/18 06:50:08;;;;;;;8.25;4.78;;;;;;;12.33;65.50;100921.38;5113904;28;20074;-62
2023/03/18 06:52:37;;;;;;;21.48;10.20;;;;;;;12.29;68.14;100919.38;5110476;28;20347;-63
2023/03/18 06:55:06;;;;;;;27.42;13.98;;;;;;;12.26;69.47;100919.81;5112535;28;20056;-63
2023/03/18 06:57:34;;;;;;;24.60;13.20;;;;;;;12.24;69.49;100917.34;5115272;28;20054;-64
2023/03/18 07:00:04;;;;;;;19.50;12.23;;;;;;;12.25;69.17;100924.38;5109287;28;20043;-65
2023/03/18 07:02:32;;;;;;;21.88;13.35;;;;;;;12.29;68.65;100928.28;5109801;28;20369;-62
2023/03/18 07:05:00;;;;;;;21.55;13.10;;;;;;;12.31;68.36;100933.44;5117379;28;20055;-63
2023/03/18 07:07:28;;;;;;;28.33;12.55;;;;;;;12.34;67.93;100935.66;5109134;28;20055;-63
2023/03/18 07:09:56;;;;;;;25.90;13.80;;;;;;;12.36;67.72;100928.16;5119911;28;20099;-61
2023/03/18 07:12:25;;;;;;;26.08;13.77;;;;;;;12.35;68.31;100930.03;5118271;28;20108;-63
2023/03/18 07:14:53;;;;;;;27.25;14.55;;;;;;;12.35;68.71;100926.53;5117951;28;20082;-62
2023/03/18 07:17:23;;;;;;;22.35;12.57;;;;;;;12.36;67.90;100933.56;5115531;28;20058;-63
2023/03/18 07:19:51;;;;;;;27.35;13.48;;;;;;;12.37;67.61;100941.41;5111738;28;20131;-63
2023/03/18 07:22:19;;;;;;;20.50;12.18;;;;;;;12.37;67.34;100941.41;5114778;28;20111;-63
2023/03/18 07:24:47;;;;;;;24.65;12.90;;;;;;;12.37;67.31;100946.78;5121312;28;20587;-63
2023/03/18 07:27:15;;;;;;;21.67;12.50;;;;;;;12.36;67.13;100945.16;5105318;28;20525;-63
2023/03/18 07:29:43;;;;;;;26.73;14.20;;;;;;;12.38;67.29;100953.00;5119313;28;20066;-63
2023/03/18 07:32:11;;;;;;;20.70;12.40;;;;;;;12.41;66.68;100957.13;5119525;28;20052;-62
2023/03/18 07:34:41;;;;;;;27.00;13.63;;;;;;;12.41;66.99;100952.56;5121613;27;20048;-64
2023/03/18 07:37:09;;;;;;;29.25;12.63;;;;;;;12.35;66.91;100950.78;5121459;28;20063;-64
2023/03/18 07:39:37;;;;;;;22.88;11.73;;;;;;;12.41;66.91;100962.50;5117640;28;20071;-61
2023/03/18 07:42:05;;;;;;;23.25;12.25;;;;;;;12.40;66.63;100959.00;5117769;28;20044;-62
2023/03/18 07:44:33;;;;;;;26.50;12.77;;;;;;;12.41;66.75;100974.13;5112398;27;20100;-62
2023/03/18 07:47:01;;;;;;;22.80;11.73;;;;;;;12.59;66.26;100975.91;5114753;28;20107;-62
2023/03/18 07:49:29;;;;;;;21.77;11.68;;;;;;;12.50;66.37;100971.91;5122927;27;20500;-62
2023/03/18 07:51:58;;;;;;;21.38;10.90;;;;;;;12.45;66.72;100969.91;5124494;28;20051;-62
2023/03/18 07:54:26;;;;;;;19.88;10.82;;;;;;;12.44;66.49;100975.53;5119933;28;20056;-62
2023/03/18 07:56:54;;;;;;;19.05;10.40;;;;;;;12.44;66.71;100972.81;5122697;28;20039;-63
2023/03/18 07:59:22;;;;;;;18.70;10.05;;;;;;;12.43;66.64;100968.50;5124272;28;20071;-63
2023/03/18 08:01:50;;;;;;;15.90;9.88;;;;;;;12.43;66.98;100968.50;5124534;28;20040;-63
2023/03/18 08:04:18;;;;;;;19.63;10.60;;;;;;;12.42;66.84;100969.53;5118369;28;20107;-64
2023/03/18 08:06:46;;;;;;;18.13;9.48;;;;;;;12.34;67.00;100949.94;5117074;28;20211;-63
2023/03/18 08:09:15;;;;;;;15.52;9.25;;;;;;;12.43;66.70;100965.78;5112330;28;20040;-64
2023/03/18 08:11:43;;;;;;;12.85;8.77;;;;;;;12.43;67.15;100949.63;5119265;28;20092;-63
2023/03/18 08:14:10;;;;;;;15.82;9.13;;;;;;;12.42;66.80;100954.19;5119507;27;20044;-63
2023/03/18 08:16:38;;;;;;;14.75;9.35;;;;;;;12.42;66.94;100956.88;5121453;28;20111;-63
2023/03/18 08:19:06;;;;;;;15.10;8.13;;;;;;;12.42;67.13;100967.66;5123787;27;20051;-63
2023/03/18 08:21:34;;;;;;;17.38;8.52;;;;;;;12.43;66.80;100963.09;5122490;28;20055;-63
2023/03/18 08:24:02;;;;;;;17.27;9.25;;;;;;;12.43;67.12;100957.72;5117775;28;20044;-63
2023/03/18 08:26:31;;;;;;;14.98;8.88;;;;;;;12.44;66.83;100956.66;5118203;28;20047;-63
2023/03/18 08:28:59;;;;;;;15.07;8.40;;;;;;;12.43;66.45;100963.91;5107143;28;20058;-63
2023/03/18 08:31:26;;;;;;;13.82;7.85;;;;;;;12.45;66.69;100967.22;5115660;28;20557;-63
2023/03/18 08:33:55;;;;;;;15.18;8.77;;;;;;;12.39;66.67;100963.56;5115133;28;20052;-63
2023/03/18 08:36:23;;;;;;;12.57;7.82;;;;;;;12.47;66.46;100975.88;5120652;28;20622;-63
2023/03/18 08:38:51;;;;;;;15.77;7.50;;;;;;;12.49;66.69;100981.03;5106319;28;20048;-63
2023/03/18 08:41:19;;;;;;;18.42;7.38;;;;;;;12.48;66.62;100980.22;5108693;28;20058;-62
2023/03/18 08:43:51;;;;;;;13.18;6.95;;;;;;;12.50;66.74;100985.38;5122752;28;20111;-63
2023/03/18 08:46:20;;;;;;;12.07;6.88;;;;;;;12.50;66.80;100985.38;5121184;28;20056;-63
2023/03/18 08:48:47;;;;;;;11.35;6.35;;;;;;;12.64;66.39;100981.44;5118485;28;20153;-62
2023/03/18 08:51:15;;;;;;;11.48;6.10;;;;;;;12.49;66.62;100964.88;5118970;28;20055;-63
2023/03/18 08:53:43;;;;;;;11.05;5.88;;;;;;;12.60;67.38;100985.63;5123364;28;20076;-66
2023/03/18 08:56:11;;;;;;;7.68;5.28;;;;;;;12.60;67.45;100978.38;5114797;28;20035;-63
2023/03/18 08:58:39;;;;;;;10.20;5.75;;;;;;;12.63;67.01;100977.91;5123005;28;20047;-63
2023/03/18 09:01:08;;;;;;;9.02;6.03;;;;;;;12.66;67.08;100973.94;5115659;28;20054;-68
2023/03/18 09:03:38;;;;;;;12.40;6.00;;;;;;;12.67;67.21;100976.38;5111585;28;20472;-64
2023/03/18 09:06:07;;;;;;;8.73;5.25;;;;;;;12.71;67.66;100968.66;5116611;28;20534;-64
2023/03/18 09:08:34;;;;;;;9.82;5.65;;;;;;;12.77;68.14;100977.69;5115620;28;20508;-63
2023/03/18 09:11:02;;;;;;;8.80;5.60;;;;;;;12.88;67.79;100979.56;5123505;28;20121;-64
2023/03/18 09:13:30;;;;;;;11.30;5.63;;;;;;;12.91;67.46;100981.81;5116956;28;20040;-63
2023/03/18 09:15:58;;;;;;;9.05;4.47;;;;;;;13.00;67.69;100970.44;5122884;28;20039;-63
2023/03/18 09:18:28;;;;;;;13.55;4.32;;;;;;;13.15;67.93;100983.44;5107466;28;20289;-65
2023/03/18 09:20:56;;;;;;;7.47;4.22;;;;;;;13.03;67.50;100978.06;5115611;28;20115;-62
2023/03/18 09:23:25;;;;;;;7.10;3.92;;;;;;;13.00;67.49;100988.50;5119482;28;20048;-63
2023/03/18 09:25:53;;;;;;;7.25;4.35;;;;;;;12.95;67.29;100997.28;5122732;28;20552;-63
2023/03/18 09:28:21;;;;;;;11.18;3.78;;;;;;;12.95;67.45;100997.28;5114754;28;20452;-63
2023/03/18 09:30:49;;;;;;;6.07;3.75;;;;;;;12.95;67.87;100991.91;5117096;28;20057;-62
2023/03/18 09:33:17;;;;;;;9.00;3.90;;;;;;;12.96;67.61;100987.31;5117937;28;20151;-59
2023/03/18 09:35:48;;;;;;;5.05;3.55;;;;;;;12.95;67.78;100981.09;5121839;28;20424;-63
2023/03/18 09:38:18;;;;;;;6.47;3.83;;;;;;;12.95;68.22;100981.09;5118798;28;20043;-63
2023/03/18 09:40:55;;;;;;;7.28;3.50;;;;;;;12.94;67.99;100982.16;5116338;28;20040;-61
2023/03/18 09:43:29;;;;;;;;;;;;;;;12.96;68.18;100996.25;5121280;28;20062;-62
2023/03/18 09:46:07;;;;;;;8.57;3.67;;;;;;;12.93;68.22;100990.50;5114395;28;19920;-62
2023/03/18 09:48:45;;;;;;;6.93;3.78;;;;;;;12.95;68.18;100985.69;5117840;28;20046;-62
2023/03/18 09:51:27;;;;;;;7.55;3.88;;;;;;;13.09;68.88;100980.88;5113685;28;20124;-62
2023/03/18 09:53:58;;;;;;;8.85;3.95;;;;;;;13.11;68.32;100984.16;5116111;28;20083;-62
2023/03/18 09:56:28;;;;;;;7.95;3.30;;;;;;;13.07;68.50;100982.97;5116948;28;20074;-63
2023/03/18 09:59:02;;;;;;;5.60;3.53;;;;;;;13.05;68.26;100980.53;5122633;28;20111;-62
2023/03/18 10:01:34;;;;;;;5.65;3.20;;;;;;;13.06;68.05;100989.44;5121955;28;20078;-62
2023/03/18 10:04:07;;;;;;;7.57;3.38;;;;;;;13.11;68.53;100987.69;5109325;28;20042;-63
2023/03/18 10:06:41;;;;;;;5.90;3.40;;;;;;;13.11;68.28;100987.69;5114179;28;20566;-63
2023/03/18 10:09:16;;;;;;;5.13;3.08;;;;;;;13.16;68.62;100997.78;5118287;28;20118;-63
2023/03/18 10:11:47;;;;;;;4.95;2.88;;;;;;;13.22;68.55;101004.97;5122645;28;20126;-62
2023/03/18 10:14:33;;;;;;;6.82;3.17;;;;;;;13.21;68.33;100989.81;5113448;28;20067;-62
2023/03/18 10:17:10;;;;;;;8.07;3.55;;;;;;;13.24;68.50;100989.34;5120735;28;20071;-62
2023/03/18 10:19:45;;;;;;;15.52;4.68;;;;;;;13.26;68.38;100992.63;5114280;28;20159;-62
2023/03/18 10:22:42;;;;;;;15.63;5.32;;;;;;;13.41;69.72;100994.84;5117173;28;20079;-62
2023/03/18 10:25:16;;;;;;;10.43;4.03;;;;;;;13.52;69.42;100997.53;5107761;28;20051;-62
2023/03/18 10:28:02;;;;;;;11.50;3.58;;;;;;;13.56;69.32;100987.91;5104377;28;20121;-63
2023/03/18 10:30:43;;;;;;;9.05;3.55;;;;;;;13.56;68.87;100987.91;5117452;28;20047;-63
2023/03/18 10:33:20;;;;;;;8.18;3.35;;;;;;;13.54;68.32;100987.31;5118432;28;20048;-62
2023/03/18 10:35:51;;;;;;;8.38;3.78;;;;;;;13.48;68.43;100976.66;5116895;28;20044;-62
2023/03/18 10:38:25;;;;;;;10.60;3.85;;;;;;;13.51;67.84;100968.06;5115846;28;20048;-63
2023/03/18 10:40:53;;;;;;;5.32;3.08;;;;;;;13.49;68.00;100973.69;5120191;28;20107;-62
2023/03/18 10:43:25;;;;;;;8.95;3.55;;;;;;;13.51;67.93;100981.56;5125629;28;20047;-62
2023/03/18 10:46:00;;;;;;;5.85;2.90;;;;;;;13.53;68.34;100982.16;5123729;28;20143;-63
2023/03/18 10:48:33;;;;;;;7.75;3.25;;;;;;;13.54;68.03;100979.22;5119550;28;20043;-62
2023/03/18 10:51:09;;;;;;;7.68;3.47;;;;;;;13.57;68.34;100977.91;5124193;28;20051;-63
2023/03/18 10:53:45;;;;;;;7.35;3.45;;;;;;;13.60;67.83;100983.66;5116518;28;20425;-63
2023/03/18 10:56:14;;;;;;;8.27;3.95;;;;;;;13.61;67.64;100981.78;5115814;27;20071;-62
2023/03/18 10:58:42;;;;;;;10.95;2.95;;;;;;;13.63;67.32;100988.59;5125128;28;20043;-62
2023/03/18 11:01:14;;;;;;;6.15;3.30;;;;;;;13.66;67.25;100985.41;5113233;28;20082;-62
2023/03/18 11:03:50;;;;;;;8.48;2.92;;;;;;;13.67;67.29;100984.34;5113996;28;20044;-62
2023/03/18 11:06:24;;;;;;;6.07;2.45;;;;;;;13.68;67.19;100986.00;5125610;28;20115;-62
2023/03/18 11:09:03;;;;;;;5.05;2.47;;;;;;;13.72;67.25;100980.94;5126381;28;20073;-63
2023/03/18 11:11:33;;;;;;;6.15;2.65;;;;;;;13.73;67.57;100979.88;5125909;28;20143;-62
2023/03/18 11:14:03;;;;;;;5.45;2.67;;;;;;;13.76;67.55;100975.88;5118970;28;20051;-62
2023/03/18 11:16:38;;;;;;;5.15;2.30;;;;;;;13.80;67.41;100985.13;5121311;28;20069;-63
2023/03/18 11:19:22;;;;;;;5.53;2.10;;;;;;;13.88;68.63;100992.84;5123018;28;20120;-63
2023/03/18 11:22:01;;;;;;;8.57;2.92;;;;;;;13.93;68.26;100990.22;5123249;27;20128;-66
2023/03/18 11:24:41;;;;;;;4.95;2.33;;;;;;;13.98;67.82;100995.72;5125408;28;20051;-64
2023/03/18 11:27:28;;;;;;;3.92;1.92;;;;;;;13.98;67.41;100999.25;5125235;28;20051;-64
2023/03/18 11:29:59;;;;;;;6.95;1.92;;;;;;;13.99;67.49;101008.19;5118558;28;20044;-63
2023/03/18 11:32:29;;;;;;;5.50;2.25;;;;;;;14.02;67.85;101005.81;5111324;27;20040;-64